»·PEaware :: N738HD KLMO-KPVU

N738HD :: KLMO-KPVU

FLIGHT INFORMATION

Flight Status: Arrived
Operator: Privately registered:
United States
More flights under this callsign
Pilot: Ian K. (19437)
Aircraft: CESSNA 172 SKYHAWK
(C172)
More flights by this aircraft type
Origin: KLMO Vance Brand Airport
United States
Destination: KPVU Provo Mun
United States
More flights between these airports :: More routes between these airports
Route: +GLL V4 CKW V208 MTU V200 PANEL
File this flight plan on PilotEdge
Remarks:
Altitude:
(Current/Filed)
12,000ft
Speed:
(Current/Filed)
108kts
Departed: 04-Nov-18 05:54 PM
Arrived: 04-Nov-18 09:26 PM
Distance/Time
Traveled:
300nm/3:32
Distance/Time
To Go:
Arrived

Flight Plot

Page will automatically refresh every two minutes.

Flight plan parsing failed; only flown route is shown


Map Options




Map Legend


Flown Route
Filed Route
Departure Airport
Arrival Airport
Navaid (VOR, NDB)
Fix

Horizontal Profiles

Position Reports

Time Latitude Longitude Heading Altitude Ground
Speed
04-Nov-18 17:37 40.163612 -105.159537 318 5039ft 0kts
04-Nov-18 17:38 40.163612 -105.159538 318 5039ft 0kts
04-Nov-18 17:39 40.163612 -105.159538 318 5039ft 0kts
04-Nov-18 17:40 40.163612 -105.159538 318 5039ft 0kts
04-Nov-18 17:41 40.163612 -105.159538 318 5039ft 0kts
04-Nov-18 17:42 40.163612 -105.159538 318 5039ft 0kts
04-Nov-18 17:43 40.163612 -105.159538 318 5039ft 0kts
04-Nov-18 17:44 40.163612 -105.159538 318 5039ft 0kts
04-Nov-18 17:45 40.163442 -105.160082 218 5040ft 13kts
04-Nov-18 17:46 40.162885 -105.158860 119 5038ft 23kts
04-Nov-18 17:47 40.161273 -105.155700 119 5031ft 0kts
04-Nov-18 17:48 40.161613 -105.155579 259 5031ft 0kts
04-Nov-18 17:49 40.161614 -105.155578 259 5031ft 0kts
04-Nov-18 17:50 40.161614 -105.155578 259 5031ft 0kts
04-Nov-18 17:51 40.161614 -105.155578 259 5031ft 0kts
04-Nov-18 17:52 40.161614 -105.155578 259 5031ft 0kts
04-Nov-18 17:53 40.161614 -105.155578 259 5031ft 0kts
04-Nov-18 17:54 40.161614 -105.155578 259 5031ft 0kts
04-Nov-18 17:55 40.161614 -105.155578 259 5031ft 0kts
04-Nov-18 17:56 40.161614 -105.155578 259 5031ft 0kts
04-Nov-18 17:57 40.162037 -105.158768 303 5038ft 42kts
04-Nov-18 17:58 40.168609 -105.180258 317 5451ft 67kts
04-Nov-18 17:59 40.178350 -105.163664 61 5960ft 78kts
04-Nov-18 18:00 40.184538 -105.137855 49 6491ft 71kts
04-Nov-18 18:01 40.190676 -105.113046 67 7004ft 75kts
04-Nov-18 18:02 40.196478 -105.089151 57 7517ft 66kts
04-Nov-18 18:03 40.205341 -105.069113 47 7999ft 60kts
04-Nov-18 18:04 40.213988 -105.049589 64 8436ft 64kts
04-Nov-18 18:05 40.223930 -105.032251 53 8876ft 58kts
04-Nov-18 18:06 40.230927 -105.013939 48 9301ft 57kts
04-Nov-18 18:07 40.240635 -104.997930 55 9713ft 55kts
04-Nov-18 18:08 40.250655 -104.982387 59 10100ft 55kts
04-Nov-18 18:09 40.259824 -104.965933 58 10469ft 57kts
04-Nov-18 18:10 40.269954 -104.949984 60 10837ft 57kts
04-Nov-18 18:11 40.279257 -104.933293 61 11179ft 59kts
04-Nov-18 18:12 40.290223 -104.917242 63 11512ft 60kts
04-Nov-18 18:13 40.300311 -104.900234 68 11830ft 60kts
04-Nov-18 18:14 40.311437 -104.882169 64 12011ft 74kts
04-Nov-18 18:15 40.324941 -104.858829 67 12003ft 83kts
04-Nov-18 18:16 40.339238 -104.834473 70 12016ft 84kts
04-Nov-18 18:17 40.351213 -104.808853 69 12009ft 82kts
04-Nov-18 18:18 40.364117 -104.783664 66 11984ft 84kts
04-Nov-18 18:19 40.376899 -104.758409 67 11953ft 84kts
04-Nov-18 18:20 40.389659 -104.734147 68 12020ft 77kts
04-Nov-18 18:21 40.402207 -104.711048 66 12060ft 78kts
04-Nov-18 18:22 40.416149 -104.688332 61 12067ft 83kts
04-Nov-18 18:23 40.431790 -104.666116 61 12048ft 86kts
04-Nov-18 18:24 40.447727 -104.642656 60 12012ft 87kts
04-Nov-18 18:25 40.464643 -104.620036 64 11998ft 84kts
04-Nov-18 18:26 40.479035 -104.595875 65 11978ft 83kts
04-Nov-18 18:27 40.492817 -104.572108 67 11994ft 81kts
04-Nov-18 18:28 40.514465 -104.565840 317 11930ft 149kts
04-Nov-18 18:29 40.541283 -104.604790 325 11953ft 144kts
04-Nov-18 18:30 40.569455 -104.641460 328 11959ft 143kts
04-Nov-18 18:31 40.597186 -104.678137 324 11990ft 143kts
04-Nov-18 18:32 40.625973 -104.713431 330 12014ft 140kts
04-Nov-18 18:33 40.651919 -104.754074 321 12000ft 146kts
04-Nov-18 18:34 40.680105 -104.792016 324 11982ft 146kts
04-Nov-18 18:35 40.707632 -104.830172 326 12011ft 144kts
04-Nov-18 18:36 40.735199 -104.867984 324 12032ft 145kts
04-Nov-18 18:37 40.762970 -104.906823 321 12020ft 147kts
04-Nov-18 18:38 40.790313 -104.946356 321 12027ft 147kts
04-Nov-18 18:39 40.818691 -104.983714 324 12039ft 145kts
04-Nov-18 18:40 40.845115 -105.024841 322 12051ft 146kts
04-Nov-18 18:41 40.872998 -105.063535 323 12052ft 146kts
04-Nov-18 18:42 40.900758 -105.102315 325 12054ft 145kts
04-Nov-18 18:43 40.929261 -105.140954 325 12037ft 146kts
04-Nov-18 18:44 40.957472 -105.179758 329 12038ft 144kts
04-Nov-18 18:45 40.985960 -105.217684 326 12054ft 144kts
04-Nov-18 18:46 41.014312 -105.255671 323 12051ft 147kts
04-Nov-18 18:47 41.043336 -105.293785 328 12027ft 145kts
04-Nov-18 18:48 41.072275 -105.331753 327 12028ft 146kts
04-Nov-18 18:49 41.099723 -105.372385 318 12022ft 149kts
04-Nov-18 18:50 41.125052 -105.415038 326 11991ft 148kts
04-Nov-18 18:51 41.153624 -105.453480 326 12005ft 147kts
04-Nov-18 18:52 41.182028 -105.492589 322 12012ft 148kts
04-Nov-18 18:53 41.210879 -105.530466 324 12011ft 147kts
04-Nov-18 18:54 41.237767 -105.572126 318 12019ft 149kts
04-Nov-18 18:55 41.264694 -105.613515 327 12006ft 148kts
04-Nov-18 18:56 41.293471 -105.651998 322 12014ft 148kts
04-Nov-18 18:57 41.321658 -105.691878 323 11970ft 147kts
04-Nov-18 18:58 41.344574 -105.736761 288 11949ft 154kts
04-Nov-18 18:59 41.357620 -105.790917 286 11948ft 155kts
04-Nov-18 19:00 41.369969 -105.845346 291 11974ft 153kts
04-Nov-18 19:01 41.383087 -105.899044 283 11976ft 155kts
04-Nov-18 19:02 41.395137 -105.953900 294 11951ft 156kts
04-Nov-18 19:03 41.406801 -106.008801 285 11982ft 155kts
04-Nov-18 19:04 41.419945 -106.062727 286 12118ft 148kts
04-Nov-18 19:05 41.430230 -106.112588 292 12546ft 138kts
04-Nov-18 19:06 41.441610 -106.161783 292 12863ft 140kts
04-Nov-18 19:07 41.453551 -106.210416 288 13224ft 138kts
04-Nov-18 19:08 41.464098 -106.260006 280 13529ft 141kts
04-Nov-18 19:09 41.474947 -106.310103 290 13842ft 140kts
04-Nov-18 19:10 41.487523 -106.360676 291 13991ft 151kts
04-Nov-18 19:11 41.499011 -106.416877 292 13967ft 158kts
04-Nov-18 19:12 41.513118 -106.472471 294 14017ft 156kts
04-Nov-18 19:13 41.527136 -106.527809 290 13990ft 157kts
04-Nov-18 19:14 41.539648 -106.583685 289 14000ft 156kts
04-Nov-18 19:15 41.553051 -106.639112 289 13991ft 157kts
04-Nov-18 19:16 41.564870 -106.695247 281 13961ft 157kts
04-Nov-18 19:17 41.574802 -106.751184 292 13951ft 155kts
04-Nov-18 19:18 41.586711 -106.806114 289 13984ft 152kts
04-Nov-18 19:19 41.598633 -106.860446 283 14035ft 150kts
04-Nov-18 19:20 41.610961 -106.914422 289 14043ft 152kts
04-Nov-18 19:21 41.624179 -106.968241 286 14062ft 153kts
04-Nov-18 19:22 41.632788 -107.024302 288 14072ft 153kts
04-Nov-18 19:23 41.644795 -107.079453 289 14043ft 157kts
04-Nov-18 19:24 41.657338 -107.133877 289 14120ft 152kts
04-Nov-18 19:25 41.671423 -107.188238 295 14078ft 155kts
04-Nov-18 19:26 41.684890 -107.244765 288 13988ft 160kts
04-Nov-18 19:26 41.695534 -107.292157 286 13938ft 160kts
04-Nov-18 19:28 41.710822 -107.357431 290 13966ft 155kts
04-Nov-18 19:29 41.723848 -107.412624 292 13957ft 157kts
04-Nov-18 19:30 41.736239 -107.468502 289 13958ft 157kts
04-Nov-18 19:30 41.745573 -107.515306 288 13987ft 155kts
04-Nov-18 19:31 41.755062 -107.572263 267 14002ft 154kts
04-Nov-18 19:32 41.733177 -107.613521 208 13967ft 137kts
04-Nov-18 19:33 41.707687 -107.651247 223 13948ft 146kts
04-Nov-18 19:34 41.683974 -107.690659 205 14000ft 127kts
04-Nov-18 19:35 41.659335 -107.726956 218 13977ft 137kts
04-Nov-18 19:36 41.634617 -107.762176 200 14001ft 126kts
04-Nov-18 19:37 41.610378 -107.798843 201 13997ft 127kts
04-Nov-18 19:38 41.584317 -107.831391 202 13995ft 128kts
04-Nov-18 19:39 41.558781 -107.866005 209 13998ft 132kts
04-Nov-18 19:40 41.533922 -107.902226 210 14003ft 133kts
04-Nov-18 19:41 41.510681 -107.940410 195 13992ft 123kts
04-Nov-18 19:43 41.484232 -107.970827 187 13997ft 118kts
04-Nov-18 19:44 41.458966 -108.004947 205 14015ft 130kts
04-Nov-18 19:45 41.433503 -108.039559 206 14017ft 132kts
04-Nov-18 19:46 41.408321 -108.075222 206 14023ft 131kts
04-Nov-18 19:47 41.383044 -108.110239 206 14040ft 131kts
04-Nov-18 19:48 41.357545 -108.145126 209 14044ft 133kts
04-Nov-18 19:49 41.333614 -108.183395 208 14049ft 134kts
04-Nov-18 19:50 41.308367 -108.219152 210 14051ft 135kts
04-Nov-18 19:51 41.283353 -108.255047 207 14070ft 132kts
04-Nov-18 19:52 41.257584 -108.289581 204 14083ft 130kts
04-Nov-18 19:53 41.232639 -108.326240 204 14111ft 128kts
04-Nov-18 19:54 41.206351 -108.361235 206 14026ft 135kts
04-Nov-18 19:55 41.181744 -108.399063 224 14075ft 141kts
04-Nov-18 19:56 41.157786 -108.437067 200 14097ft 126kts
04-Nov-18 19:57 41.131742 -108.471461 209 14013ft 140kts
04-Nov-18 19:58 41.105842 -108.508622 213 14008ft 140kts
04-Nov-18 19:59 41.079998 -108.545377 205 13992ft 134kts
04-Nov-18 20:00 41.053182 -108.579500 206 13988ft 134kts
04-Nov-18 20:01 41.027572 -108.616298 200 13966ft 130kts
04-Nov-18 20:02 41.000044 -108.647846 208 13965ft 136kts
04-Nov-18 20:03 40.974952 -108.683413 210 13949ft 134kts
04-Nov-18 20:04 40.949666 -108.718879 211 13924ft 135kts
04-Nov-18 20:05 40.925752 -108.755204 208 13989ft 130kts
04-Nov-18 20:06 40.901288 -108.790438 209 14007ft 131kts
04-Nov-18 20:07 40.877194 -108.825357 210 14038ft 132kts
04-Nov-18 20:08 40.852422 -108.860548 201 14055ft 127kts
04-Nov-18 20:09 40.826723 -108.893650 199 14056ft 126kts
04-Nov-18 20:10 40.800375 -108.925537 204 14052ft 130kts
04-Nov-18 20:11 40.774875 -108.960008 209 14057ft 133kts
04-Nov-18 20:12 40.752714 -109.000571 201 14046ft 129kts
04-Nov-18 20:13 40.725586 -109.029888 209 14073ft 131kts
04-Nov-18 20:14 40.700400 -109.064507 203 14088ft 129kts
04-Nov-18 20:15 40.674584 -109.098548 206 14061ft 133kts
04-Nov-18 20:16 40.648337 -109.132731 205 14032ft 134kts
04-Nov-18 20:17 40.622766 -109.169645 211 14024ft 135kts
04-Nov-18 20:18 40.598200 -109.207723 200 13993ft 129kts
04-Nov-18 20:19 40.571575 -109.240992 221 13954ft 144kts
04-Nov-18 20:20 40.544606 -109.272121 205 13949ft 134kts
04-Nov-18 20:21 40.519525 -109.308650 208 13974ft 133kts
04-Nov-18 20:22 40.493770 -109.343474 202 13985ft 130kts
04-Nov-18 20:23 40.466550 -109.371280 224 13957ft 142kts
04-Nov-18 20:24 40.443142 -109.410053 208 13995ft 132kts
04-Nov-18 20:25 40.417858 -109.445906 210 13995ft 135kts
04-Nov-18 20:26 40.393028 -109.482819 211 14020ft 135kts
04-Nov-18 20:27 40.373871 -109.527640 237 14013ft 150kts
04-Nov-18 20:28 40.352683 -109.570718 221 14038ft 142kts
04-Nov-18 20:29 40.335550 -109.619390 239 14052ft 150kts
04-Nov-18 20:30 40.318417 -109.668071 231 14032ft 147kts
04-Nov-18 20:31 40.302202 -109.717453 227 13997ft 144kts
04-Nov-18 20:32 40.285318 -109.766047 225 13971ft 142kts
04-Nov-18 20:33 40.268414 -109.813771 235 13959ft 146kts
04-Nov-18 20:34 40.253066 -109.862202 229 14016ft 140kts
04-Nov-18 20:35 40.234288 -109.906625 222 14036ft 137kts
04-Nov-18 20:36 40.218350 -109.954143 263 13993ft 156kts
04-Nov-18 20:37 40.201730 -109.999398 221 13998ft 142kts
04-Nov-18 20:38 40.183510 -110.045227 248 14016ft 152kts
04-Nov-18 20:39 40.166242 -110.091028 222 14029ft 140kts
04-Nov-18 20:40 40.153975 -110.141168 272 14034ft 155kts
04-Nov-18 20:41 40.158540 -110.196817 267 14052ft 155kts
04-Nov-18 20:42 40.162476 -110.252618 266 14079ft 154kts
04-Nov-18 20:43 40.164831 -110.309147 272 14069ft 157kts
04-Nov-18 20:44 40.168352 -110.366387 274 14060ft 157kts
04-Nov-18 20:45 40.173225 -110.423302 273 14045ft 157kts
04-Nov-18 20:46 40.178374 -110.480336 271 14045ft 157kts
04-Nov-18 20:47 40.181917 -110.537416 272 14046ft 157kts
04-Nov-18 20:48 40.186335 -110.594495 275 14039ft 158kts
04-Nov-18 20:49 40.195878 -110.650209 274 14067ft 156kts
04-Nov-18 20:50 40.199770 -110.706946 288 13977ft 159kts
04-Nov-18 20:51 40.200983 -110.763507 276 13933ft 160kts
04-Nov-18 20:52 40.203921 -110.820177 267 13949ft 154kts
04-Nov-18 20:53 40.208959 -110.876427 278 13939ft 155kts
04-Nov-18 20:54 40.209975 -110.931890 273 13973ft 154kts
04-Nov-18 20:55 40.215392 -110.987071 274 14040ft 152kts
04-Nov-18 20:56 40.219234 -111.042452 268 14078ft 151kts
04-Nov-18 20:57 40.221709 -111.098674 277 14065ft 155kts
04-Nov-18 20:58 40.225130 -111.154774 274 14073ft 156kts
04-Nov-18 20:59 40.230581 -111.210753 279 14089ft 156kts
04-Nov-18 21:00 40.233437 -111.266901 268 14123ft 154kts
04-Nov-18 21:01 40.235128 -111.323674 271 14053ft 161kts
04-Nov-18 21:02 40.238801 -111.382436 273 13958ft 163kts
04-Nov-18 21:03 40.243298 -111.441494 272 13936ft 156kts
04-Nov-18 21:04 40.247496 -111.498258 267 13962ft 155kts
04-Nov-18 21:05 40.252128 -111.555978 271 13893ft 160kts
04-Nov-18 21:06 40.256702 -111.612837 277 13920ft 157kts
04-Nov-18 21:07 40.256777 -111.669650 273 13925ft 157kts
04-Nov-18 21:08 40.260859 -111.726610 276 13478ft 159kts
04-Nov-18 21:09 40.265773 -111.782792 267 12670ft 156kts
04-Nov-18 21:10 40.268664 -111.838377 273 11878ft 154kts
04-Nov-18 21:11 40.274790 -111.892669 285 11148ft 149kts
04-Nov-18 21:12 40.279314 -111.944373 330 10378ft 132kts
04-Nov-18 21:13 40.306550 -111.964307 347 9826ft 109kts
04-Nov-18 21:14 40.332128 -111.978248 31 9246ft 80kts
04-Nov-18 21:15 40.348677 -111.962162 35 8668ft 76kts
04-Nov-18 21:16 40.366498 -111.946893 33 8089ft 75kts
04-Nov-18 21:17 40.381886 -111.928764 44 7998ft 74kts
04-Nov-18 21:18 40.394975 -111.907080 50 8057ft 76kts
04-Nov-18 21:19 40.392619 -111.880822 139 8013ft 118kts
04-Nov-18 21:20 40.364209 -111.862432 128 7601ft 110kts
04-Nov-18 21:21 40.341312 -111.835834 121 7112ft 110kts
04-Nov-18 21:22 40.314532 -111.811919 134 6607ft 120kts
04-Nov-18 21:23 40.287363 -111.786331 137 6114ft 118kts
04-Nov-18 21:24 40.260114 -111.761332 138 5360ft 123kts
04-Nov-18 21:25 40.231662 -111.742712 177 5078ft 108kts
04-Nov-18 21:26 40.204730 -111.748511 193 5118ft 103kts
04-Nov-18 21:27 40.191756 -111.728213 36 5052ft 66kts
04-Nov-18 21:28 40.205771 -111.725941 2 4573ft 59kts
04-Nov-18 21:29 40.214073 -111.723917 9 4494ft 18kts
04-Nov-18 21:30 40.219279 -111.720767 65 4495ft 24kts

Navigation Log

Ident Type
Flight plan parsing failed, navigation log unavailable